sensor_id;sensor_type;location;lat;lon;timestamp;P1;durP1;ratioP1;P2;durP2;ratioP2
19651;SDS011;9974;52.146;14.668;2022-12-07T00:01:13;16.43;;;10.43;;
19651;SDS011;9974;52.146;14.668;2022-12-07T00:03:46;14.70;;;9.77;;
19651;SDS011;9974;52.146;14.668;2022-12-07T00:06:14;15.83;;;10.47;;
19651;SDS011;9974;52.146;14.668;2022-12-07T00:08:41;15.23;;;9.93;;
19651;SDS011;9974;52.146;14.668;2022-12-07T00:11:09;14.83;;;9.67;;
19651;SDS011;9974;52.146;14.668;2022-12-07T00:13:37;14.70;;;10.10;;
19651;SDS011;9974;52.146;14.668;2022-12-07T00:16:04;16.90;;;9.63;;
19651;SDS011;9974;52.146;14.668;2022-12-07T00:18:36;20.87;;;10.70;;
19651;SDS011;9974;52.146;14.668;2022-12-07T00:21:12;15.33;;;9.33;;
19651;SDS011;9974;52.146;14.668;2022-12-07T00:23:50;13.43;;;8.40;;
19651;SDS011;9974;52.146;14.668;2022-12-07T00:26:18;16.43;;;8.97;;
19651;SDS011;9974;52.146;14.668;2022-12-07T00:28:46;12.27;;;7.50;;
19651;SDS011;9974;52.146;14.668;2022-12-07T00:31:14;12.37;;;8.30;;
19651;SDS011;9974;52.146;14.668;2022-12-07T00:33:42;11.87;;;7.57;;
19651;SDS011;9974;52.146;14.668;2022-12-07T00:36:10;12.83;;;8.07;;
19651;SDS011;9974;52.146;14.668;2022-12-07T00:38:39;12.07;;;8.00;;
19651;SDS011;9974;52.146;14.668;2022-12-07T00:41:06;12.60;;;8.30;;
19651;SDS011;9974;52.146;14.668;2022-12-07T00:43:37;12.20;;;7.93;;
19651;SDS011;9974;52.146;14.668;2022-12-07T00:46:03;14.37;;;9.10;;
19651;SDS011;9974;52.146;14.668;2022-12-07T00:48:29;12.97;;;7.80;;
19651;SDS011;9974;52.146;14.668;2022-12-07T00:50:55;11.37;;;6.70;;
19651;SDS011;9974;52.146;14.668;2022-12-07T00:53:21;10.73;;;7.07;;
19651;SDS011;9974;52.146;14.668;2022-12-07T00:55:48;12.37;;;7.33;;
19651;SDS011;9974;52.146;14.668;2022-12-07T00:58:14;8.83;;;6.70;;
19651;SDS011;9974;52.146;14.668;2022-12-07T01:00:40;13.30;;;7.17;;
19651;SDS011;9974;52.146;14.668;2022-12-07T01:03:08;9.90;;;7.00;;
19651;SDS011;9974;52.146;14.668;2022-12-07T01:05:37;13.03;;;7.50;;
19651;SDS011;9974;52.146;14.668;2022-12-07T01:08:04;11.27;;;7.17;;
19651;SDS011;9974;52.146;14.668;2022-12-07T01:10:30;9.20;;;6.80;;
19651;SDS011;9974;52.146;14.668;2022-12-07T01:12:56;8.73;;;6.00;;
19651;SDS011;9974;52.146;14.668;2022-12-07T01:15:23;11.03;;;6.57;;
19651;SDS011;9974;52.146;14.668;2022-12-07T01:17:50;9.00;;;6.20;;
19651;SDS011;9974;52.146;14.668;2022-12-07T01:20:15;10.70;;;6.87;;
19651;SDS011;9974;52.146;14.668;2022-12-07T01:22:42;9.27;;;5.90;;
19651;SDS011;9974;52.146;14.668;2022-12-07T01:25:08;9.90;;;6.27;;
19651;SDS011;9974;52.146;14.668;2022-12-07T01:27:36;9.03;;;6.17;;
19651;SDS011;9974;52.146;14.668;2022-12-07T01:30:03;9.70;;;6.00;;
19651;SDS011;9974;52.146;14.668;2022-12-07T01:32:31;9.67;;;6.30;;
19651;SDS011;9974;52.146;14.668;2022-12-07T01:34:58;8.53;;;6.20;;
19651;SDS011;9974;52.146;14.668;2022-12-07T01:37:24;8.90;;;6.53;;
19651;SDS011;9974;52.146;14.668;2022-12-07T01:39:50;10.27;;;6.00;;
19651;SDS011;9974;52.146;14.668;2022-12-07T01:42:16;11.00;;;5.90;;
19651;SDS011;9974;52.146;14.668;2022-12-07T01:47:43;9.87;;;5.23;;
19651;SDS011;9974;52.146;14.668;2022-12-07T01:50:13;9.73;;;5.97;;
19651;SDS011;9974;52.146;14.668;2022-12-07T01:52:39;10.30;;;6.53;;
19651;SDS011;9974;52.146;14.668;2022-12-07T01:55:09;9.20;;;5.80;;
19651;SDS011;9974;52.146;14.668;2022-12-07T01:57:39;8.17;;;5.47;;
19651;SDS011;9974;52.146;14.668;2022-12-07T02:00:09;8.87;;;5.50;;
19651;SDS011;9974;52.146;14.668;2022-12-07T02:02:37;10.37;;;5.97;;
19651;SDS011;9974;52.146;14.668;2022-12-07T02:05:09;10.47;;;6.63;;
19651;SDS011;9974;52.146;14.668;2022-12-07T02:07:36;12.80;;;6.23;;
19651;SDS011;9974;52.146;14.668;2022-12-07T02:10:13;11.73;;;6.20;;
19651;SDS011;9974;52.146;14.668;2022-12-07T02:12:55;15.60;;;8.00;;
19651;SDS011;9974;52.146;14.668;2022-12-07T02:15:44;18.20;;;9.43;;
19651;SDS011;9974;52.146;14.668;2022-12-07T02:18:25;15.57;;;9.43;;
19651;SDS011;9974;52.146;14.668;2022-12-07T02:21:12;18.77;;;10.40;;
19651;SDS011;9974;52.146;14.668;2022-12-07T02:26:26;19.07;;;10.70;;
19651;SDS011;9974;52.146;14.668;2022-12-07T02:29:25;16.57;;;9.63;;
19651;SDS011;9974;52.146;14.668;2022-12-07T02:34:49;16.23;;;10.47;;
19651;SDS011;9974;52.146;14.668;2022-12-07T02:40:33;21.07;;;13.37;;
19651;SDS011;9974;52.146;14.668;2022-12-07T02:46:20;19.63;;;12.33;;
19651;SDS011;9974;52.146;14.668;2022-12-07T02:48:51;16.57;;;10.80;;
19651;SDS011;9974;52.146;14.668;2022-12-07T02:51:18;18.80;;;12.43;;
19651;SDS011;9974;52.146;14.668;2022-12-07T02:53:44;14.93;;;10.07;;
19651;SDS011;9974;52.146;14.668;2022-12-07T03:01:56;15.40;;;9.70;;
19651;SDS011;9974;52.146;14.668;2022-12-07T03:04:50;11.87;;;7.60;;
19651;SDS011;9974;52.146;14.668;2022-12-07T03:07:51;12.53;;;8.77;;
19651;SDS011;9974;52.146;14.668;2022-12-07T03:13:37;12.73;;;8.13;;
19651;SDS011;9974;52.146;14.668;2022-12-07T03:16:43;13.73;;;7.67;;
19651;SDS011;9974;52.146;14.668;2022-12-07T03:19:18;12.20;;;8.43;;
19651;SDS011;9974;52.146;14.668;2022-12-07T03:21:49;10.77;;;7.27;;
19651;SDS011;9974;52.146;14.668;2022-12-07T03:24:26;10.93;;;7.43;;
19651;SDS011;9974;52.146;14.668;2022-12-07T03:26:59;11.20;;;7.73;;
19651;SDS011;9974;52.146;14.668;2022-12-07T03:29:35;11.93;;;7.80;;
19651;SDS011;9974;52.146;14.668;2022-12-07T03:32:22;12.20;;;7.17;;
19651;SDS011;9974;52.146;14.668;2022-12-07T03:37:42;11.00;;;7.07;;
19651;SDS011;9974;52.146;14.668;2022-12-07T03:40:21;11.07;;;7.60;;
19651;SDS011;9974;52.146;14.668;2022-12-07T03:43:02;11.23;;;7.47;;
19651;SDS011;9974;52.146;14.668;2022-12-07T03:45:39;9.43;;;6.33;;
19651;SDS011;9974;52.146;14.668;2022-12-07T03:48:09;11.13;;;6.97;;
19651;SDS011;9974;52.146;14.668;2022-12-07T03:51:05;10.67;;;6.23;;
19651;SDS011;9974;52.146;14.668;2022-12-07T03:53:40;10.17;;;5.47;;
19651;SDS011;9974;52.146;14.668;2022-12-07T03:56:12;7.97;;;5.60;;
19651;SDS011;9974;52.146;14.668;2022-12-07T03:58:39;8.80;;;5.63;;
19651;SDS011;9974;52.146;14.668;2022-12-07T04:01:06;8.33;;;5.33;;
19651;SDS011;9974;52.146;14.668;2022-12-07T04:03:31;7.73;;;4.90;;
19651;SDS011;9974;52.146;14.668;2022-12-07T04:05:57;7.57;;;4.53;;
19651;SDS011;9974;52.146;14.668;2022-12-07T04:08:24;6.50;;;4.57;;
19651;SDS011;9974;52.146;14.668;2022-12-07T04:10:50;6.97;;;4.17;;
19651;SDS011;9974;52.146;14.668;2022-12-07T04:13:16;7.40;;;4.20;;
19651;SDS011;9974;52.146;14.668;2022-12-07T04:15:42;7.83;;;5.07;;
19651;SDS011;9974;52.146;14.668;2022-12-07T04:18:08;6.60;;;4.63;;
19651;SDS011;9974;52.146;14.668;2022-12-07T04:20:33;7.67;;;5.13;;
19651;SDS011;9974;52.146;14.668;2022-12-07T04:23:00;8.13;;;4.77;;
19651;SDS011;9974;52.146;14.668;2022-12-07T04:25:26;7.63;;;4.80;;
19651;SDS011;9974;52.146;14.668;2022-12-07T04:27:52;6.10;;;4.10;;
19651;SDS011;9974;52.146;14.668;2022-12-07T04:30:18;6.93;;;4.30;;
19651;SDS011;9974;52.146;14.668;2022-12-07T04:32:44;7.07;;;4.57;;
19651;SDS011;9974;52.146;14.668;2022-12-07T04:35:10;5.23;;;3.83;;
19651;SDS011;9974;52.146;14.668;2022-12-07T04:37:36;6.70;;;4.37;;
19651;SDS011;9974;52.146;14.668;2022-12-07T04:40:05;6.50;;;4.40;;
19651;SDS011;9974;52.146;14.668;2022-12-07T04:42:32;7.37;;;4.37;;
19651;SDS011;9974;52.146;14.668;2022-12-07T04:44:58;6.20;;;4.37;;
19651;SDS011;9974;52.146;14.668;2022-12-07T04:47:24;6.83;;;4.47;;
19651;SDS011;9974;52.146;14.668;2022-12-07T04:49:50;7.97;;;4.80;;
19651;SDS011;9974;52.146;14.668;2022-12-07T04:52:16;7.00;;;4.63;;
19651;SDS011;9974;52.146;14.668;2022-12-07T04:54:42;7.17;;;4.80;;
19651;SDS011;9974;52.146;14.668;2022-12-07T04:57:08;9.60;;;5.00;;
19651;SDS011;9974;52.146;14.668;2022-12-07T04:59:34;6.67;;;4.47;;
19651;SDS011;9974;52.146;14.668;2022-12-07T05:02:00;8.67;;;5.30;;
19651;SDS011;9974;52.146;14.668;2022-12-07T05:04:26;8.97;;;5.27;;
19651;SDS011;9974;52.146;14.668;2022-12-07T05:06:52;7.27;;;4.17;;
19651;SDS011;9974;52.146;14.668;2022-12-07T05:09:18;9.73;;;5.03;;
19651;SDS011;9974;52.146;14.668;2022-12-07T05:11:44;7.40;;;4.60;;
19651;SDS011;9974;52.146;14.668;2022-12-07T05:14:14;8.70;;;4.83;;
19651;SDS011;9974;52.146;14.668;2022-12-07T05:16:43;6.83;;;4.57;;
19651;SDS011;9974;52.146;14.668;2022-12-07T05:19:12;8.30;;;5.70;;
19651;SDS011;9974;52.146;14.668;2022-12-07T05:21:38;9.00;;;5.73;;
19651;SDS011;9974;52.146;14.668;2022-12-07T05:24:04;8.87;;;5.73;;
19651;SDS011;9974;52.146;14.668;2022-12-07T05:26:31;9.00;;;5.63;;
19651;SDS011;9974;52.146;14.668;2022-12-07T05:28:57;12.53;;;6.40;;
19651;SDS011;9974;52.146;14.668;2022-12-07T05:31:24;9.30;;;6.07;;
19651;SDS011;9974;52.146;14.668;2022-12-07T05:33:50;11.17;;;6.07;;
19651;SDS011;9974;52.146;14.668;2022-12-07T05:36:16;9.00;;;6.23;;
19651;SDS011;9974;52.146;14.668;2022-12-07T05:38:43;10.27;;;6.53;;
19651;SDS011;9974;52.146;14.668;2022-12-07T05:41:09;11.03;;;6.93;;
19651;SDS011;9974;52.146;14.668;2022-12-07T05:43:58;10.00;;;6.20;;
19651;SDS011;9974;52.146;14.668;2022-12-07T05:46:25;12.07;;;7.83;;
19651;SDS011;9974;52.146;14.668;2022-12-07T05:48:50;11.20;;;7.53;;
19651;SDS011;9974;52.146;14.668;2022-12-07T05:51:17;11.83;;;7.63;;
19651;SDS011;9974;52.146;14.668;2022-12-07T05:53:43;13.50;;;8.13;;
19651;SDS011;9974;52.146;14.668;2022-12-07T05:56:09;14.07;;;8.73;;
19651;SDS011;9974;52.146;14.668;2022-12-07T05:58:35;12.87;;;8.30;;
19651;SDS011;9974;52.146;14.668;2022-12-07T06:01:19;16.93;;;9.33;;
19651;SDS011;9974;52.146;14.668;2022-12-07T06:03:45;16.37;;;10.57;;
19651;SDS011;9974;52.146;14.668;2022-12-07T06:06:11;16.43;;;11.03;;
19651;SDS011;9974;52.146;14.668;2022-12-07T06:08:37;19.27;;;10.73;;
19651;SDS011;9974;52.146;14.668;2022-12-07T06:11:03;15.50;;;10.73;;
19651;SDS011;9974;52.146;14.668;2022-12-07T06:13:47;15.90;;;11.00;;
19651;SDS011;9974;52.146;14.668;2022-12-07T06:16:13;15.93;;;10.27;;
19651;SDS011;9974;52.146;14.668;2022-12-07T06:18:39;18.53;;;11.63;;
19651;SDS011;9974;52.146;14.668;2022-12-07T06:21:05;20.17;;;12.30;;
19651;SDS011;9974;52.146;14.668;2022-12-07T06:23:31;16.73;;;11.67;;
19651;SDS011;9974;52.146;14.668;2022-12-07T06:25:57;14.70;;;10.60;;
19651;SDS011;9974;52.146;14.668;2022-12-07T06:28:23;20.07;;;12.03;;
19651;SDS011;9974;52.146;14.668;2022-12-07T06:31:00;19.37;;;12.07;;
19651;SDS011;9974;52.146;14.668;2022-12-07T06:33:27;19.90;;;12.30;;
19651;SDS011;9974;52.146;14.668;2022-12-07T06:35:53;19.47;;;12.10;;
19651;SDS011;9974;52.146;14.668;2022-12-07T06:38:19;19.87;;;12.80;;
19651;SDS011;9974;52.146;14.668;2022-12-07T06:40:45;25.10;;;12.43;;
19651;SDS011;9974;52.146;14.668;2022-12-07T06:43:10;17.73;;;11.87;;
19651;SDS011;9974;52.146;14.668;2022-12-07T06:45:36;19.83;;;12.60;;
19651;SDS011;9974;52.146;14.668;2022-12-07T06:48:02;23.97;;;12.70;;
19651;SDS011;9974;52.146;14.668;2022-12-07T06:50:29;22.63;;;14.17;;
19651;SDS011;9974;52.146;14.668;2022-12-07T06:52:55;22.07;;;13.57;;
19651;SDS011;9974;52.146;14.668;2022-12-07T06:55:21;21.30;;;12.37;;
19651;SDS011;9974;52.146;14.668;2022-12-07T06:57:46;18.80;;;12.57;;
19651;SDS011;9974;52.146;14.668;2022-12-07T07:00:12;21.30;;;13.37;;
19651;SDS011;9974;52.146;14.668;2022-12-07T07:02:39;18.27;;;12.10;;
19651;SDS011;9974;52.146;14.668;2022-12-07T07:05:04;19.17;;;12.27;;
19651;SDS011;9974;52.146;14.668;2022-12-07T07:07:30;17.03;;;11.20;;
19651;SDS011;9974;52.146;14.668;2022-12-07T07:09:56;20.77;;;12.30;;
19651;SDS011;9974;52.146;14.668;2022-12-07T07:12:22;17.13;;;11.50;;
19651;SDS011;9974;52.146;14.668;2022-12-07T07:14:48;20.07;;;11.60;;
19651;SDS011;9974;52.146;14.668;2022-12-07T07:17:14;16.87;;;12.23;;
19651;SDS011;9974;52.146;14.668;2022-12-07T07:19:41;19.30;;;12.37;;
19651;SDS011;9974;52.146;14.668;2022-12-07T07:22:07;16.93;;;11.63;;
19651;SDS011;9974;52.146;14.668;2022-12-07T07:24:33;19.37;;;12.87;;
19651;SDS011;9974;52.146;14.668;2022-12-07T07:26:59;18.83;;;12.90;;
19651;SDS011;9974;52.146;14.668;2022-12-07T07:29:25;22.13;;;12.97;;
19651;SDS011;9974;52.146;14.668;2022-12-07T07:31:51;23.60;;;16.40;;
19651;SDS011;9974;52.146;14.668;2022-12-07T07:34:17;23.17;;;14.50;;
19651;SDS011;9974;52.146;14.668;2022-12-07T07:36:43;23.30;;;15.30;;
19651;SDS011;9974;52.146;14.668;2022-12-07T07:39:09;21.03;;;13.87;;
19651;SDS011;9974;52.146;14.668;2022-12-07T07:41:37;24.13;;;14.17;;
19651;SDS011;9974;52.146;14.668;2022-12-07T07:44:03;21.67;;;14.07;;
19651;SDS011;9974;52.146;14.668;2022-12-07T07:46:30;23.73;;;14.83;;
19651;SDS011;9974;52.146;14.668;2022-12-07T07:48:58;23.13;;;14.40;;
19651;SDS011;9974;52.146;14.668;2022-12-07T07:51:24;24.47;;;14.20;;
19651;SDS011;9974;52.146;14.668;2022-12-07T07:53:50;27.57;;;17.90;;
19651;SDS011;9974;52.146;14.668;2022-12-07T07:56:15;27.53;;;18.30;;
19651;SDS011;9974;52.146;14.668;2022-12-07T07:58:41;36.50;;;22.47;;
19651;SDS011;9974;52.146;14.668;2022-12-07T08:01:07;28.20;;;16.30;;
19651;SDS011;9974;52.146;14.668;2022-12-07T08:03:33;30.03;;;17.93;;
19651;SDS011;9974;52.146;14.668;2022-12-07T08:05:59;33.53;;;18.63;;
19651;SDS011;9974;52.146;14.668;2022-12-07T08:08:26;25.97;;;16.90;;
19651;SDS011;9974;52.146;14.668;2022-12-07T08:10:51;28.73;;;18.30;;
19651;SDS011;9974;52.146;14.668;2022-12-07T08:13:17;23.73;;;15.70;;
19651;SDS011;9974;52.146;14.668;2022-12-07T08:15:44;25.33;;;17.13;;
19651;SDS011;9974;52.146;14.668;2022-12-07T08:18:12;28.27;;;18.23;;
19651;SDS011;9974;52.146;14.668;2022-12-07T08:20:39;27.27;;;17.67;;
19651;SDS011;9974;52.146;14.668;2022-12-07T08:23:06;26.00;;;16.87;;
19651;SDS011;9974;52.146;14.668;2022-12-07T08:25:32;25.33;;;17.80;;
19651;SDS011;9974;52.146;14.668;2022-12-07T08:27:58;24.27;;;17.57;;
19651;SDS011;9974;52.146;14.668;2022-12-07T08:30:25;28.67;;;18.67;;
19651;SDS011;9974;52.146;14.668;2022-12-07T08:32:51;26.53;;;17.53;;
19651;SDS011;9974;52.146;14.668;2022-12-07T08:35:17;25.47;;;17.53;;
19651;SDS011;9974;52.146;14.668;2022-12-07T08:37:43;29.83;;;18.60;;
19651;SDS011;9974;52.146;14.668;2022-12-07T08:40:10;28.47;;;18.10;;
19651;SDS011;9974;52.146;14.668;2022-12-07T08:42:40;28.87;;;19.00;;
19651;SDS011;9974;52.146;14.668;2022-12-07T08:45:08;29.37;;;17.67;;
19651;SDS011;9974;52.146;14.668;2022-12-07T08:47:37;27.57;;;18.37;;
19651;SDS011;9974;52.146;14.668;2022-12-07T08:50:17;26.17;;;17.63;;
19651;SDS011;9974;52.146;14.668;2022-12-07T08:52:43;29.37;;;18.20;;
19651;SDS011;9974;52.146;14.668;2022-12-07T08:55:10;27.47;;;18.53;;
19651;SDS011;9974;52.146;14.668;2022-12-07T08:57:37;29.90;;;18.90;;
19651;SDS011;9974;52.146;14.668;2022-12-07T09:00:04;24.07;;;16.97;;
19651;SDS011;9974;52.146;14.668;2022-12-07T09:02:31;28.07;;;16.27;;
19651;SDS011;9974;52.146;14.668;2022-12-07T09:04:57;26.10;;;18.73;;
19651;SDS011;9974;52.146;14.668;2022-12-07T09:07:23;26.97;;;17.20;;
19651;SDS011;9974;52.146;14.668;2022-12-07T09:09:50;25.73;;;16.73;;
19651;SDS011;9974;52.146;14.668;2022-12-07T09:12:16;27.63;;;16.23;;
19651;SDS011;9974;52.146;14.668;2022-12-07T09:14:42;25.93;;;16.63;;
19651;SDS011;9974;52.146;14.668;2022-12-07T09:17:09;23.97;;;16.47;;
19651;SDS011;9974;52.146;14.668;2022-12-07T09:19:36;26.53;;;17.30;;
19651;SDS011;9974;52.146;14.668;2022-12-07T09:22:03;28.60;;;17.17;;
19651;SDS011;9974;52.146;14.668;2022-12-07T09:24:29;23.10;;;16.33;;
19651;SDS011;9974;52.146;14.668;2022-12-07T09:26:58;28.73;;;15.50;;
19651;SDS011;9974;52.146;14.668;2022-12-07T09:29:24;24.00;;;16.13;;
19651;SDS011;9974;52.146;14.668;2022-12-07T09:31:51;21.30;;;13.30;;
19651;SDS011;9974;52.146;14.668;2022-12-07T09:34:17;21.67;;;13.77;;
19651;SDS011;9974;52.146;14.668;2022-12-07T09:36:43;24.80;;;16.57;;
19651;SDS011;9974;52.146;14.668;2022-12-07T09:39:09;19.87;;;13.90;;
19651;SDS011;9974;52.146;14.668;2022-12-07T09:41:39;20.27;;;13.53;;
19651;SDS011;9974;52.146;14.668;2022-12-07T09:44:12;24.47;;;13.83;;
19651;SDS011;9974;52.146;14.668;2022-12-07T09:46:40;18.73;;;13.37;;
19651;SDS011;9974;52.146;14.668;2022-12-07T09:49:09;19.90;;;13.17;;
19651;SDS011;9974;52.146;14.668;2022-12-07T09:54:46;19.23;;;11.77;;
19651;SDS011;9974;52.146;14.668;2022-12-07T09:57:14;18.27;;;11.93;;
19651;SDS011;9974;52.146;14.668;2022-12-07T09:59:40;18.17;;;11.97;;
19651;SDS011;9974;52.146;14.668;2022-12-07T10:04:59;17.90;;;11.67;;
19651;SDS011;9974;52.146;14.668;2022-12-07T10:07:25;14.67;;;10.73;;
19651;SDS011;9974;52.146;14.668;2022-12-07T10:09:51;26.10;;;15.37;;
19651;SDS011;9974;52.146;14.668;2022-12-07T10:12:17;20.60;;;13.70;;
19651;SDS011;9974;52.146;14.668;2022-12-07T10:14:54;17.17;;;11.17;;
19651;SDS011;9974;52.146;14.668;2022-12-07T10:17:31;18.30;;;10.20;;
19651;SDS011;9974;52.146;14.668;2022-12-07T10:22:37;9.77;;;7.03;;
19651;SDS011;9974;52.146;14.668;2022-12-07T10:25:18;10.37;;;7.50;;
19651;SDS011;9974;52.146;14.668;2022-12-07T10:27:56;8.57;;;5.73;;
19651;SDS011;9974;52.146;14.668;2022-12-07T10:30:27;12.13;;;5.17;;
19651;SDS011;9974;52.146;14.668;2022-12-07T10:32:53;7.13;;;4.77;;
19651;SDS011;9974;52.146;14.668;2022-12-07T10:35:21;7.20;;;4.47;;
19651;SDS011;9974;52.146;14.668;2022-12-07T10:37:53;8.37;;;4.17;;
19651;SDS011;9974;52.146;14.668;2022-12-07T10:40:25;6.67;;;4.50;;
19651;SDS011;9974;52.146;14.668;2022-12-07T10:43:05;10.03;;;4.60;;
19651;SDS011;9974;52.146;14.668;2022-12-07T10:45:54;5.73;;;4.00;;
19651;SDS011;9974;52.146;14.668;2022-12-07T10:48:54;8.87;;;5.00;;
19651;SDS011;9974;52.146;14.668;2022-12-07T10:51:42;10.00;;;5.50;;
19651;SDS011;9974;52.146;14.668;2022-12-07T10:54:39;9.43;;;5.07;;
19651;SDS011;9974;52.146;14.668;2022-12-07T10:57:17;7.43;;;4.37;;
19651;SDS011;9974;52.146;14.668;2022-12-07T11:00:18;6.20;;;3.47;;
19651;SDS011;9974;52.146;14.668;2022-12-07T11:08:54;5.53;;;3.60;;
19651;SDS011;9974;52.146;14.668;2022-12-07T11:17:17;7.00;;;4.40;;
19651;SDS011;9974;52.146;14.668;2022-12-07T11:23:01;7.17;;;4.10;;
19651;SDS011;9974;52.146;14.668;2022-12-07T11:31:05;7.10;;;4.20;;
19651;SDS011;9974;52.146;14.668;2022-12-07T11:33:57;4.47;;;2.93;;
19651;SDS011;9974;52.146;14.668;2022-12-07T11:36:35;4.53;;;2.60;;
19651;SDS011;9974;52.146;14.668;2022-12-07T11:39:16;4.60;;;2.77;;
19651;SDS011;9974;52.146;14.668;2022-12-07T11:41:48;6.93;;;3.03;;
19651;SDS011;9974;52.146;14.668;2022-12-07T11:44:31;6.50;;;2.20;;
19651;SDS011;9974;52.146;14.668;2022-12-07T11:47:36;3.60;;;2.23;;
19651;SDS011;9974;52.146;14.668;2022-12-07T11:50:31;2.80;;;2.00;;
19651;SDS011;9974;52.146;14.668;2022-12-07T11:55:54;3.90;;;2.10;;
19651;SDS011;9974;52.146;14.668;2022-12-07T12:06:34;7.57;;;5.13;;
19651;SDS011;9974;52.146;14.668;2022-12-07T12:09:14;4.00;;;2.17;;
19651;SDS011;9974;52.146;14.668;2022-12-07T12:12:17;16.07;;;10.93;;
19651;SDS011;9974;52.146;14.668;2022-12-07T12:21:02;5.63;;;3.60;;
19651;SDS011;9974;52.146;14.668;2022-12-07T12:26:07;3.00;;;1.97;;
19651;SDS011;9974;52.146;14.668;2022-12-07T12:31:35;3.13;;;1.90;;
19651;SDS011;9974;52.146;14.668;2022-12-07T12:37:14;4.97;;;2.60;;
19651;SDS011;9974;52.146;14.668;2022-12-07T12:42:48;3.90;;;2.13;;
19651;SDS011;9974;52.146;14.668;2022-12-07T12:45:25;3.43;;;2.50;;
19651;SDS011;9974;52.146;14.668;2022-12-07T12:50:30;5.93;;;4.33;;
19651;SDS011;9974;52.146;14.668;2022-12-07T12:53:16;7.17;;;4.60;;
19651;SDS011;9974;52.146;14.668;2022-12-07T12:56:02;11.33;;;10.13;;
19651;SDS011;9974;52.146;14.668;2022-12-07T13:01:46;5.07;;;3.47;;
19651;SDS011;9974;52.146;14.668;2022-12-07T13:13:03;7.97;;;2.87;;
19651;SDS011;9974;52.146;14.668;2022-12-07T13:15:33;5.07;;;2.67;;
19651;SDS011;9974;52.146;14.668;2022-12-07T13:18:22;9.80;;;6.20;;
19651;SDS011;9974;52.146;14.668;2022-12-07T13:23:37;8.43;;;5.00;;
19651;SDS011;9974;52.146;14.668;2022-12-07T13:26:42;4.83;;;2.30;;
19651;SDS011;9974;52.146;14.668;2022-12-07T13:29:19;12.53;;;5.60;;
19651;SDS011;9974;52.146;14.668;2022-12-07T13:31:50;11.40;;;6.27;;
19651;SDS011;9974;52.146;14.668;2022-12-07T13:37:10;4.23;;;1.63;;
19651;SDS011;9974;52.146;14.668;2022-12-07T13:39:52;11.67;;;5.77;;
19651;SDS011;9974;52.146;14.668;2022-12-07T13:42:25;4.37;;;2.50;;
19651;SDS011;9974;52.146;14.668;2022-12-07T13:44:53;8.10;;;3.67;;
19651;SDS011;9974;52.146;14.668;2022-12-07T13:50:21;17.90;;;9.20;;
19651;SDS011;9974;52.146;14.668;2022-12-07T13:52:57;5.67;;;2.93;;
19651;SDS011;9974;52.146;14.668;2022-12-07T13:55:24;6.17;;;2.37;;
19651;SDS011;9974;52.146;14.668;2022-12-07T13:57:51;5.63;;;2.27;;
19651;SDS011;9974;52.146;14.668;2022-12-07T14:02:59;5.97;;;3.07;;
19651;SDS011;9974;52.146;14.668;2022-12-07T14:05:48;10.97;;;8.67;;
19651;SDS011;9974;52.146;14.668;2022-12-07T14:08:30;9.73;;;4.93;;
19651;SDS011;9974;52.146;14.668;2022-12-07T14:10:56;12.30;;;3.60;;
19651;SDS011;9974;52.146;14.668;2022-12-07T14:18:53;2.50;;;1.90;;
19651;SDS011;9974;52.146;14.668;2022-12-07T14:21:21;7.70;;;3.50;;
19651;SDS011;9974;52.146;14.668;2022-12-07T14:26:33;5.33;;;3.07;;
19651;SDS011;9974;52.146;14.668;2022-12-07T14:31:45;8.90;;;2.73;;
19651;SDS011;9974;52.146;14.668;2022-12-07T14:34:13;5.67;;;2.70;;
19651;SDS011;9974;52.146;14.668;2022-12-07T14:36:39;21.03;;;12.77;;
19651;SDS011;9974;52.146;14.668;2022-12-07T14:39:05;11.63;;;5.20;;
19651;SDS011;9974;52.146;14.668;2022-12-07T14:41:31;17.07;;;8.77;;
19651;SDS011;9974;52.146;14.668;2022-12-07T14:44:15;4.33;;;2.43;;
19651;SDS011;9974;52.146;14.668;2022-12-07T14:46:41;6.17;;;2.80;;
19651;SDS011;9974;52.146;14.668;2022-12-07T14:49:07;7.87;;;3.17;;
19651;SDS011;9974;52.146;14.668;2022-12-07T14:51:34;9.40;;;3.23;;
19651;SDS011;9974;52.146;14.668;2022-12-07T14:54:02;6.27;;;3.07;;
19651;SDS011;9974;52.146;14.668;2022-12-07T14:56:30;8.10;;;3.30;;
19651;SDS011;9974;52.146;14.668;2022-12-07T14:58:56;12.40;;;6.53;;
19651;SDS011;9974;52.146;14.668;2022-12-07T15:01:22;13.57;;;5.67;;
19651;SDS011;9974;52.146;14.668;2022-12-07T15:03:48;29.83;;;13.07;;
19651;SDS011;9974;52.146;14.668;2022-12-07T15:06:15;14.93;;;5.60;;
19651;SDS011;9974;52.146;14.668;2022-12-07T15:08:42;12.50;;;5.60;;
19651;SDS011;9974;52.146;14.668;2022-12-07T15:11:11;20.33;;;10.00;;
19651;SDS011;9974;52.146;14.668;2022-12-07T15:13:38;13.20;;;5.70;;
19651;SDS011;9974;52.146;14.668;2022-12-07T15:16:23;5.70;;;3.00;;
19651;SDS011;9974;52.146;14.668;2022-12-07T15:18:49;7.43;;;3.53;;
19651;SDS011;9974;52.146;14.668;2022-12-07T15:21:16;7.47;;;2.17;;
19651;SDS011;9974;52.146;14.668;2022-12-07T15:23:42;6.53;;;2.30;;
19651;SDS011;9974;52.146;14.668;2022-12-07T15:26:09;10.33;;;3.17;;
19651;SDS011;9974;52.146;14.668;2022-12-07T15:28:35;8.60;;;3.20;;
19651;SDS011;9974;52.146;14.668;2022-12-07T15:31:02;8.53;;;3.30;;
19651;SDS011;9974;52.146;14.668;2022-12-07T15:33:28;7.27;;;3.60;;
19651;SDS011;9974;52.146;14.668;2022-12-07T15:35:54;42.23;;;19.60;;
19651;SDS011;9974;52.146;14.668;2022-12-07T15:38:20;10.33;;;5.97;;
19651;SDS011;9974;52.146;14.668;2022-12-07T15:40:47;11.23;;;5.57;;
19651;SDS011;9974;52.146;14.668;2022-12-07T15:43:13;7.60;;;4.73;;
19651;SDS011;9974;52.146;14.668;2022-12-07T15:45:57;8.53;;;3.53;;
19651;SDS011;9974;52.146;14.668;2022-12-07T15:48:24;8.70;;;3.30;;
19651;SDS011;9974;52.146;14.668;2022-12-07T15:50:50;7.90;;;3.10;;
19651;SDS011;9974;52.146;14.668;2022-12-07T15:53:16;6.70;;;3.03;;
19651;SDS011;9974;52.146;14.668;2022-12-07T15:55:42;6.70;;;4.23;;
19651;SDS011;9974;52.146;14.668;2022-12-07T15:58:08;5.97;;;3.17;;
19651;SDS011;9974;52.146;14.668;2022-12-07T16:00:35;6.50;;;3.13;;
19651;SDS011;9974;52.146;14.668;2022-12-07T16:03:01;11.93;;;3.03;;
19651;SDS011;9974;52.146;14.668;2022-12-07T16:05:27;6.20;;;3.03;;
19651;SDS011;9974;52.146;14.668;2022-12-07T16:07:53;6.30;;;3.10;;
19651;SDS011;9974;52.146;14.668;2022-12-07T16:10:19;6.33;;;3.30;;
19651;SDS011;9974;52.146;14.668;2022-12-07T16:12:45;4.83;;;2.90;;
19651;SDS011;9974;52.146;14.668;2022-12-07T16:15:11;5.63;;;3.40;;
19651;SDS011;9974;52.146;14.668;2022-12-07T16:17:36;9.63;;;3.67;;
19651;SDS011;9974;52.146;14.668;2022-12-07T16:20:03;58.67;;;27.53;;
19651;SDS011;9974;52.146;14.668;2022-12-07T16:22:29;8.73;;;3.00;;
19651;SDS011;9974;52.146;14.668;2022-12-07T16:24:56;6.43;;;3.10;;
19651;SDS011;9974;52.146;14.668;2022-12-07T16:27:22;6.40;;;4.00;;
19651;SDS011;9974;52.146;14.668;2022-12-07T16:29:48;10.20;;;4.87;;
19651;SDS011;9974;52.146;14.668;2022-12-07T16:32:14;10.00;;;3.43;;
19651;SDS011;9974;52.146;14.668;2022-12-07T16:34:40;6.60;;;3.80;;
19651;SDS011;9974;52.146;14.668;2022-12-07T16:37:06;10.20;;;4.20;;
19651;SDS011;9974;52.146;14.668;2022-12-07T16:39:32;5.67;;;2.73;;
19651;SDS011;9974;52.146;14.668;2022-12-07T16:41:59;9.53;;;3.87;;
19651;SDS011;9974;52.146;14.668;2022-12-07T16:44:25;10.10;;;4.90;;
19651;SDS011;9974;52.146;14.668;2022-12-07T16:46:51;5.70;;;3.40;;
19651;SDS011;9974;52.146;14.668;2022-12-07T16:49:17;9.77;;;3.60;;
19651;SDS011;9974;52.146;14.668;2022-12-07T16:51:44;9.30;;;3.70;;
19651;SDS011;9974;52.146;14.668;2022-12-07T16:54:11;8.07;;;4.03;;